Ironbound, New Jersey
Current Conditions -  °F | °C
As of 5:18 PM on Monday 26 Jan 2015 (Local Time) from KEWR Reporting Station
Light Snow Light Snow  
Wind Chill: 12°   Ceiling: 700
Heat Index: 25°   Visibility: 0.75mi
Dew Point: 21°   Wind: 15mph
Humidity: 86%   Direction: 20°NNE
Pressure: 29.85"   Gusts: NA
Location:  40.7236°N, 74.1407°W
Report Text: KEWR 262218Z 02013KT 3/4SM R04R/4000V5000FT -SN BR BKN007 OVC013 M04/M06 A2985 RMK AO2 P0001
Loading
Personal Weather Stations






























Interactive Weather Map New forecast layout! Learn more

10-Day Weather Forecast

Advertisements
Track Severe Weather on mobile